sensor_id;sensor_type;location;lat;lon;timestamp;pressure;altitude;pressure_sealevel;temperature;humidity
41945;BME280;63122;52.424;13.458;2023-04-29T00:00:51;100334.06;;;11.70;100.00
41945;BME280;63122;52.424;13.458;2023-04-29T00:02:50;100336.41;;;11.64;100.00
41945;BME280;63122;52.424;13.458;2023-04-29T00:04:46;100328.31;;;11.66;100.00
41945;BME280;63122;52.424;13.458;2023-04-29T00:06:41;100332.28;;;11.62;100.00
41945;BME280;63122;52.424;13.458;2023-04-29T00:08:37;100320.53;;;11.64;100.00
41945;BME280;63122;52.424;13.458;2023-04-29T00:10:32;100322.84;;;11.67;100.00
41945;BME280;63122;52.424;13.458;2023-04-29T00:12:27;100324.34;;;11.70;100.00
41945;BME280;63122;52.424;13.458;2023-04-29T00:14:24;100320.53;;;11.64;100.00
41945;BME280;63122;52.424;13.458;2023-04-29T00:16:20;100305.00;;;11.70;100.00
41945;BME280;63122;52.424;13.458;2023-04-29T00:18:17;100315.91;;;11.75;100.00
41945;BME280;63122;52.424;13.458;2023-04-29T00:20:13;100312.28;;;11.76;100.00
41945;BME280;63122;52.424;13.458;2023-04-29T00:22:08;100312.94;;;11.78;100.00
41945;BME280;63122;52.424;13.458;2023-04-29T00:24:04;100307.66;;;11.78;100.00
41945;BME280;63122;52.424;13.458;2023-04-29T00:25:59;100301.06;;;11.74;100.00
41945;BME280;63122;52.424;13.458;2023-04-29T00:27:55;100307.16;;;11.74;100.00
41945;BME280;63122;52.424;13.458;2023-04-29T00:29:53;100303.03;;;11.72;100.00
41945;BME280;63122;52.424;13.458;2023-04-29T00:31:48;100296.28;;;11.69;100.00
41945;BME280;63122;52.424;13.458;2023-04-29T00:33:46;100285.69;;;11.69;100.00
41945;BME280;63122;52.424;13.458;2023-04-29T00:35:42;100290.66;;;11.72;100.00
41945;BME280;63122;52.424;13.458;2023-04-29T00:37:38;100290.81;;;11.71;100.00
41945;BME280;63122;52.424;13.458;2023-04-29T00:39:38;100300.41;;;11.63;100.00
41945;BME280;63122;52.424;13.458;2023-04-29T00:41:33;100307.00;;;11.67;100.00
41945;BME280;63122;52.424;13.458;2023-04-29T00:43:28;100307.84;;;11.60;100.00
41945;BME280;63122;52.424;13.458;2023-04-29T00:45:24;100318.41;;;11.51;100.00
41945;BME280;63122;52.424;13.458;2023-04-29T00:47:19;100301.09;;;11.49;100.00
41945;BME280;63122;52.424;13.458;2023-04-29T00:49:18;100304.06;;;11.54;100.00
41945;BME280;63122;52.424;13.458;2023-04-29T00:51:17;100307.16;;;11.58;100.00
41945;BME280;63122;52.424;13.458;2023-04-29T00:53:13;100303.88;;;11.56;100.00
41945;BME280;63122;52.424;13.458;2023-04-29T00:55:10;100309.69;;;11.51;100.00
41945;BME280;63122;52.424;13.458;2023-04-29T00:57:07;100318.59;;;11.50;100.00
41945;BME280;63122;52.424;13.458;2023-04-29T00:59:03;100314.78;;;11.44;100.00
41945;BME280;63122;52.424;13.458;2023-04-29T01:01:02;100310.34;;;11.45;100.00
41945;BME280;63122;52.424;13.458;2023-04-29T01:03:00;100316.94;;;11.49;100.00
41945;BME280;63122;52.424;13.458;2023-04-29T01:05:01;100318.28;;;11.45;100.00
41945;BME280;63122;52.424;13.458;2023-04-29T01:07:03;100322.72;;;11.36;100.00
41945;BME280;63122;52.424;13.458;2023-04-29T01:09:17;100327.81;;;11.29;100.00
41945;BME280;63122;52.424;13.458;2023-04-29T01:11:22;100326.81;;;11.05;100.00
41945;BME280;63122;52.424;13.458;2023-04-29T01:13:27;100315.44;;;11.13;100.00
41945;BME280;63122;52.424;13.458;2023-04-29T01:15:27;100317.59;;;11.26;100.00
41945;BME280;63122;52.424;13.458;2023-04-29T01:17:24;100311.84;;;11.31;100.00
41945;BME280;63122;52.424;13.458;2023-04-29T01:19:35;100312.50;;;11.33;100.00
41945;BME280;63122;52.424;13.458;2023-04-29T01:21:44;100303.72;;;11.32;100.00
41945;BME280;63122;52.424;13.458;2023-04-29T01:23:42;100302.59;;;11.35;100.00
41945;BME280;63122;52.424;13.458;2023-04-29T01:25:38;100292.00;;;11.27;100.00
41945;BME280;63122;52.424;13.458;2023-04-29T01:27:41;100295.16;;;11.30;100.00
41945;BME280;63122;52.424;13.458;2023-04-29T01:33:17;100307.34;;;11.15;100.00
41945;BME280;63122;52.424;13.458;2023-04-29T01:36:09;100304.56;;;11.08;100.00
41945;BME280;63122;52.424;13.458;2023-04-29T01:38:36;100302.91;;;11.07;100.00
41945;BME280;63122;52.424;13.458;2023-04-29T01:44:36;100313.56;;;10.72;100.00
41945;BME280;63122;52.424;13.458;2023-04-29T01:47:49;100309.94;;;10.82;100.00
41945;BME280;63122;52.424;13.458;2023-04-29T01:54:37;100304.00;;;10.88;100.00
41945;BME280;63122;52.424;13.458;2023-04-29T01:57:23;100301.75;;;10.93;100.00
41945;BME280;63122;52.424;13.458;2023-04-29T02:00:50;100307.00;;;10.93;100.00
41945;BME280;63122;52.424;13.458;2023-04-29T02:06:02;100306.00;;;10.86;100.00
41945;BME280;63122;52.424;13.458;2023-04-29T02:08:18;100299.91;;;10.77;100.00
41945;BME280;63122;52.424;13.458;2023-04-29T02:13:12;100296.28;;;10.78;100.00
41945;BME280;63122;52.424;13.458;2023-04-29T02:16:20;100302.03;;;10.73;100.00
41945;BME280;63122;52.424;13.458;2023-04-29T02:18:49;100307.78;;;10.69;100.00
41945;BME280;63122;52.424;13.458;2023-04-29T02:21:23;100307.94;;;10.67;100.00
41945;BME280;63122;52.424;13.458;2023-04-29T02:24:04;100307.44;;;10.63;100.00
41945;BME280;63122;52.424;13.458;2023-04-29T02:26:22;100300.84;;;10.68;100.00
41945;BME280;63122;52.424;13.458;2023-04-29T02:39:14;100287.31;;;10.71;100.00
41945;BME280;63122;52.424;13.458;2023-04-29T02:42:26;100301.16;;;10.56;100.00
41945;BME280;63122;52.424;13.458;2023-04-29T02:50:34;100296.28;;;10.35;100.00
41945;BME280;63122;52.424;13.458;2023-04-29T02:53:43;100300.50;;;10.19;100.00
41945;BME280;63122;52.424;13.458;2023-04-29T04:02:03;100294.03;;;10.48;100.00
41945;BME280;63122;52.424;13.458;2023-04-29T04:08:58;100295.88;;;10.48;100.00
41945;BME280;63122;52.424;13.458;2023-04-29T04:24:12;100313.75;;;10.36;100.00
41945;BME280;63122;52.424;13.458;2023-04-29T04:26:08;100314.88;;;10.33;100.00
41945;BME280;63122;52.424;13.458;2023-04-29T04:28:04;100313.75;;;10.36;100.00
41945;BME280;63122;52.424;13.458;2023-04-29T04:29:59;100311.94;;;10.36;100.00
41945;BME280;63122;52.424;13.458;2023-04-29T04:31:54;100313.38;;;10.31;100.00
41945;BME280;63122;52.424;13.458;2023-04-29T04:33:50;100316.69;;;10.33;100.00
41945;BME280;63122;52.424;13.458;2023-04-29T04:35:47;100314.75;;;10.35;100.00
41945;BME280;63122;52.424;13.458;2023-04-29T04:37:43;100317.16;;;10.28;100.00
41945;BME280;63122;52.424;13.458;2023-04-29T04:39:41;100318.66;;;10.31;100.00
41945;BME280;63122;52.424;13.458;2023-04-29T04:41:38;100324.78;;;10.40;100.00
41945;BME280;63122;52.424;13.458;2023-04-29T04:43:33;100323.03;;;10.40;100.00
41945;BME280;63122;52.424;13.458;2023-04-29T04:45:29;100326.09;;;10.35;100.00
41945;BME280;63122;52.424;13.458;2023-04-29T04:47:24;100324.59;;;10.33;100.00
41945;BME280;63122;52.424;13.458;2023-04-29T04:49:20;100327.09;;;10.34;100.00
41945;BME280;63122;52.424;13.458;2023-04-29T04:51:17;100327.44;;;10.40;100.00
41945;BME280;63122;52.424;13.458;2023-04-29T04:53:12;100321.88;;;10.43;100.00
41945;BME280;63122;52.424;13.458;2023-04-29T04:55:11;100329.25;;;10.39;100.00
41945;BME280;63122;52.424;13.458;2023-04-29T04:57:06;100334.53;;;10.39;100.00
41945;BME280;63122;52.424;13.458;2023-04-29T04:59:02;100334.66;;;10.37;100.00
41945;BME280;63122;52.424;13.458;2023-04-29T05:00:57;100336.13;;;10.32;100.00
41945;BME280;63122;52.424;13.458;2023-04-29T05:02:53;100334.31;;;10.32;100.00
41945;BME280;63122;52.424;13.458;2023-04-29T05:04:48;100337.28;;;10.29;100.00
41945;BME280;63122;52.424;13.458;2023-04-29T05:06:44;100339.59;;;10.32;100.00
41945;BME280;63122;52.424;13.458;2023-04-29T05:08:39;100345.84;;;10.31;100.00
41945;BME280;63122;52.424;13.458;2023-04-29T05:10:37;100345.81;;;10.23;100.00
41945;BME280;63122;52.424;13.458;2023-04-29T05:12:33;100342.53;;;10.21;100.00
41945;BME280;63122;52.424;13.458;2023-04-29T05:14:28;100338.72;;;10.23;100.00
41945;BME280;63122;52.424;13.458;2023-04-29T05:16:27;100335.28;;;10.23;100.00
41945;BME280;63122;52.424;13.458;2023-04-29T05:18:23;100339.72;;;10.22;100.00
41945;BME280;63122;52.424;13.458;2023-04-29T05:20:19;100339.75;;;10.31;100.00
41945;BME280;63122;52.424;13.458;2023-04-29T05:22:14;100345.84;;;10.31;100.00
41945;BME280;63122;52.424;13.458;2023-04-29T05:24:09;100345.84;;;10.31;100.00
41945;BME280;63122;52.424;13.458;2023-04-29T05:26:07;100347.66;;;10.31;100.00
41945;BME280;63122;52.424;13.458;2023-04-29T05:28:03;100351.59;;;10.27;100.00
41945;BME280;63122;52.424;13.458;2023-04-29T05:29:58;100350.16;;;10.32;100.00
41945;BME280;63122;52.424;13.458;2023-04-29T05:31:53;100353.31;;;10.36;100.00
41945;BME280;63122;52.424;13.458;2023-04-29T05:33:51;100361.50;;;10.33;100.00
41945;BME280;63122;52.424;13.458;2023-04-29T05:35:47;100358.06;;;10.32;100.00
41945;BME280;63122;52.424;13.458;2023-04-29T05:37:42;100350.94;;;10.33;100.00
41945;BME280;63122;52.424;13.458;2023-04-29T05:39:37;100357.41;;;10.38;100.00
41945;BME280;63122;52.424;13.458;2023-04-29T05:41:35;100361.41;;;10.43;100.00
41945;BME280;63122;52.424;13.458;2023-04-29T05:43:30;100358.41;;;10.37;100.00
41945;BME280;63122;52.424;13.458;2023-04-29T05:45:25;100360.06;;;10.38;100.00
41945;BME280;63122;52.424;13.458;2023-04-29T05:47:20;100364.66;;;10.36;100.00
41945;BME280;63122;52.424;13.458;2023-04-29T05:49:16;100367.28;;;10.36;100.00
41945;BME280;63122;52.424;13.458;2023-04-29T05:51:11;100372.03;;;10.33;100.00
41945;BME280;63122;52.424;13.458;2023-04-29T05:53:07;100365.66;;;10.35;100.00
41945;BME280;63122;52.424;13.458;2023-04-29T05:55:02;100372.25;;;10.40;100.00
41945;BME280;63122;52.424;13.458;2023-04-29T05:57:01;100366.03;;;10.41;100.00
41945;BME280;63122;52.424;13.458;2023-04-29T05:58:56;100374.88;;;10.40;100.00
41945;BME280;63122;52.424;13.458;2023-04-29T06:00:52;100374.78;;;10.41;100.00
41945;BME280;63122;52.424;13.458;2023-04-29T06:02:49;100374.13;;;10.47;100.00
41945;BME280;63122;52.424;13.458;2023-04-29T06:04:50;100370.84;;;10.45;100.00
41945;BME280;63122;52.424;13.458;2023-04-29T06:06:46;100382.69;;;10.41;100.00
41945;BME280;63122;52.424;13.458;2023-04-29T06:08:41;100379.88;;;10.43;100.00
41945;BME280;63122;52.424;13.458;2023-04-29T06:10:36;100384.03;;;10.45;100.00
41945;BME280;63122;52.424;13.458;2023-04-29T06:12:34;100390.09;;;10.46;100.00
41945;BME280;63122;52.424;13.458;2023-04-29T06:14:30;100384.16;;;10.44;100.00
41945;BME280;63122;52.424;13.458;2023-04-29T06:16:25;100389.63;;;10.42;100.00
41945;BME280;63122;52.424;13.458;2023-04-29T06:18:20;100386.66;;;10.45;100.00
41945;BME280;63122;52.424;13.458;2023-04-29T06:20:15;100386.66;;;10.45;100.00
41945;BME280;63122;52.424;13.458;2023-04-29T06:22:11;100387.66;;;10.44;100.00
41945;BME280;63122;52.424;13.458;2023-04-29T06:24:06;100391.63;;;10.48;100.00
41945;BME280;63122;52.424;13.458;2023-04-29T06:26:01;100394.25;;;10.48;100.00
41945;BME280;63122;52.424;13.458;2023-04-29T06:27:59;100395.09;;;10.49;100.00
41945;BME280;63122;52.424;13.458;2023-04-29T06:29:56;100399.38;;;10.50;100.00
41945;BME280;63122;52.424;13.458;2023-04-29T06:31:51;100394.25;;;10.48;100.00
41945;BME280;63122;52.424;13.458;2023-04-29T06:33:47;100395.75;;;10.51;100.00
41945;BME280;63122;52.424;13.458;2023-04-29T06:35:42;100398.22;;;10.52;100.00
41945;BME280;63122;52.424;13.458;2023-04-29T06:37:38;100402.19;;;10.57;100.00
41945;BME280;63122;52.424;13.458;2023-04-29T06:39:33;100399.41;;;10.58;100.00
41945;BME280;63122;52.424;13.458;2023-04-29T06:41:28;100405.00;;;10.55;100.00
41945;BME280;63122;52.424;13.458;2023-04-29T06:43:27;100408.63;;;10.54;100.00
41945;BME280;63122;52.424;13.458;2023-04-29T06:45:23;100403.03;;;10.57;100.00
41945;BME280;63122;52.424;13.458;2023-04-29T06:47:19;100416.69;;;10.52;100.00
41945;BME280;63122;52.424;13.458;2023-04-29T06:49:14;100407.97;;;10.52;100.00
41945;BME280;63122;52.424;13.458;2023-04-29T06:51:09;100412.91;;;10.55;100.00
41945;BME280;63122;52.424;13.458;2023-04-29T06:53:05;100419.84;;;10.56;100.00
41945;BME280;63122;52.424;13.458;2023-04-29T06:55:00;100414.56;;;10.56;100.00
41945;BME280;63122;52.424;13.458;2023-04-29T06:56:56;100416.03;;;10.59;100.00
41945;BME280;63122;52.424;13.458;2023-04-29T06:58:54;100417.88;;;10.58;100.00
41945;BME280;63122;52.424;13.458;2023-04-29T07:00:50;100416.88;;;10.59;100.00
41945;BME280;63122;52.424;13.458;2023-04-29T07:02:45;100414.41;;;10.58;100.00
41945;BME280;63122;52.424;13.458;2023-04-29T07:04:40;100424.66;;;10.61;100.00
41945;BME280;63122;52.424;13.458;2023-04-29T07:06:36;100420.84;;;10.63;100.00
41945;BME280;63122;52.424;13.458;2023-04-29T07:08:31;100424.03;;;10.67;100.00
41945;BME280;63122;52.424;13.458;2023-04-29T07:10:27;100423.69;;;10.70;100.00
41945;BME280;63122;52.424;13.458;2023-04-29T07:12:22;100433.78;;;10.75;100.00
41945;BME280;63122;52.424;13.458;2023-04-29T07:14:22;100423.06;;;10.76;100.00
41945;BME280;63122;52.424;13.458;2023-04-29T07:16:18;100432.16;;;10.82;100.00
41945;BME280;63122;52.424;13.458;2023-04-29T07:18:17;100437.91;;;10.77;100.00
41945;BME280;63122;52.424;13.458;2023-04-29T07:20:13;100428.53;;;10.83;100.00
41945;BME280;63122;52.424;13.458;2023-04-29T07:22:08;100438.44;;;10.89;100.00
41945;BME280;63122;52.424;13.458;2023-04-29T07:24:04;100436.47;;;10.91;100.00
41945;BME280;63122;52.424;13.458;2023-04-29T07:26:08;100430.69;;;10.88;100.00
41945;BME280;63122;52.424;13.458;2023-04-29T07:28:04;100437.47;;;10.90;100.00
41945;BME280;63122;52.424;13.458;2023-04-29T07:30:02;100433.84;;;11.00;100.00
41945;BME280;63122;52.424;13.458;2023-04-29T07:31:58;100438.13;;;10.92;100.00
41945;BME280;63122;52.424;13.458;2023-04-29T07:33:54;100436.31;;;10.93;100.00
41945;BME280;63122;52.424;13.458;2023-04-29T07:35:49;100436.50;;;11.00;100.00
41945;BME280;63122;52.424;13.458;2023-04-29T07:37:44;100445.41;;;10.99;100.00
41945;BME280;63122;52.424;13.458;2023-04-29T07:39:40;100444.25;;;10.93;100.00
41945;BME280;63122;52.424;13.458;2023-04-29T07:41:36;100449.34;;;10.94;100.00
41945;BME280;63122;52.424;13.458;2023-04-29T07:43:31;100452.16;;;10.93;100.00
41945;BME280;63122;52.424;13.458;2023-04-29T07:45:29;100458.25;;;10.93;100.00
41945;BME280;63122;52.424;13.458;2023-04-29T07:47:24;100461.06;;;10.92;100.00
41945;BME280;63122;52.424;13.458;2023-04-29T07:49:19;100461.19;;;10.82;100.00
41945;BME280;63122;52.424;13.458;2023-04-29T07:51:15;100471.75;;;10.82;100.00
41945;BME280;63122;52.424;13.458;2023-04-29T07:53:10;100465.44;;;10.75;100.00
41945;BME280;63122;52.424;13.458;2023-04-29T07:55:08;100472.06;;;10.79;100.00
41945;BME280;63122;52.424;13.458;2023-04-29T07:57:04;100473.84;;;10.78;100.00
41945;BME280;63122;52.424;13.458;2023-04-29T07:59:00;100467.94;;;10.85;100.00
41945;BME280;63122;52.424;13.458;2023-04-29T08:01:04;100474.59;;;10.89;100.00
41945;BME280;63122;52.424;13.458;2023-04-29T08:03:00;100483.00;;;10.92;100.00
41945;BME280;63122;52.424;13.458;2023-04-29T08:04:56;100475.91;;;10.93;100.00
41945;BME280;63122;52.424;13.458;2023-04-29T08:06:55;100484.97;;;10.90;100.00
41945;BME280;63122;52.424;13.458;2023-04-29T08:08:51;100489.78;;;10.95;100.00
41945;BME280;63122;52.424;13.458;2023-04-29T08:10:48;100491.56;;;10.94;100.00
41945;BME280;63122;52.424;13.458;2023-04-29T08:12:44;100497.19;;;10.91;100.00
41945;BME280;63122;52.424;13.458;2023-04-29T08:14:41;100499.00;;;10.91;100.00
41945;BME280;63122;52.424;13.458;2023-04-29T08:16:39;100503.09;;;10.85;100.00
41945;BME280;63122;52.424;13.458;2023-04-29T08:18:35;100502.09;;;10.86;100.00
41945;BME280;63122;52.424;13.458;2023-04-29T08:20:30;100509.19;;;10.86;100.00
41945;BME280;63122;52.424;13.458;2023-04-29T08:22:26;100514.63;;;10.84;100.00
41945;BME280;63122;52.424;13.458;2023-04-29T08:24:21;100509.84;;;10.88;100.00
41945;BME280;63122;52.424;13.458;2023-04-29T08:26:17;100517.59;;;10.81;100.00
41945;BME280;63122;52.424;13.458;2023-04-29T08:28:14;100524.53;;;10.82;100.00
41945;BME280;63122;52.424;13.458;2023-04-29T08:30:12;100519.72;;;10.86;100.00
41945;BME280;63122;52.424;13.458;2023-04-29T08:32:10;100529.16;;;10.88;100.00
41945;BME280;63122;52.424;13.458;2023-04-29T08:34:05;100531.28;;;10.85;100.00
41945;BME280;63122;52.424;13.458;2023-04-29T08:36:01;100538.06;;;10.87;100.00
41945;BME280;63122;52.424;13.458;2023-04-29T08:37:57;100541.38;;;10.89;100.00
41945;BME280;63122;52.424;13.458;2023-04-29T08:39:53;100540.56;;;10.89;100.00
41945;BME280;63122;52.424;13.458;2023-04-29T08:41:48;100547.63;;;10.88;100.00
41945;BME280;63122;52.424;13.458;2023-04-29T08:43:46;100549.28;;;10.89;100.00
41945;BME280;63122;52.424;13.458;2023-04-29T08:45:42;100555.41;;;10.90;100.00
41945;BME280;63122;52.424;13.458;2023-04-29T08:47:40;100548.63;;;10.87;100.00
41945;BME280;63122;52.424;13.458;2023-04-29T08:49:37;100555.22;;;10.91;100.00
41945;BME280;63122;52.424;13.458;2023-04-29T08:51:32;100546.50;;;10.91;100.00
41945;BME280;63122;52.424;13.458;2023-04-29T08:53:28;100551.13;;;10.89;100.00
41945;BME280;63122;52.424;13.458;2023-04-29T08:55:23;100557.56;;;10.94;100.00
41945;BME280;63122;52.424;13.458;2023-04-29T08:57:19;100573.75;;;11.00;100.00
41945;BME280;63122;52.424;13.458;2023-04-29T08:59:16;100575.25;;;11.02;100.00
41945;BME280;63122;52.424;13.458;2023-04-29T09:01:12;100568.84;;;11.05;100.00
41945;BME280;63122;52.424;13.458;2023-04-29T09:03:17;100570.34;;;11.07;100.00
41945;BME280;63122;52.424;13.458;2023-04-29T09:05:16;100573.69;;;11.18;100.00
41945;BME280;63122;52.424;13.458;2023-04-29T09:07:13;100576.84;;;11.21;100.00
41945;BME280;63122;52.424;13.458;2023-04-29T09:09:09;100584.72;;;11.13;100.00
41945;BME280;63122;52.424;13.458;2023-04-29T09:11:08;100588.13;;;11.05;100.00
41945;BME280;63122;52.424;13.458;2023-04-29T09:13:08;100594.63;;;11.11;100.00
41945;BME280;63122;52.424;13.458;2023-04-29T09:15:09;100590.63;;;11.07;100.00
41945;BME280;63122;52.424;13.458;2023-04-29T09:17:07;100592.28;;;11.08;100.00
41945;BME280;63122;52.424;13.458;2023-04-29T09:19:09;100592.72;;;10.95;100.00
41945;BME280;63122;52.424;13.458;2023-04-29T09:21:17;100602.59;;;10.93;100.00
41945;BME280;63122;52.424;13.458;2023-04-29T09:23:16;100594.38;;;10.96;100.00
41945;BME280;63122;52.424;13.458;2023-04-29T09:25:16;100600.28;;;10.90;100.00
41945;BME280;63122;52.424;13.458;2023-04-29T09:27:25;100598.41;;;10.82;100.00
41945;BME280;63122;52.424;13.458;2023-04-29T09:29:27;100613.75;;;10.87;100.00
41945;BME280;63122;52.424;13.458;2023-04-29T09:31:27;100606.81;;;10.86;100.00
41945;BME280;63122;52.424;13.458;2023-04-29T09:33:25;100617.53;;;10.84;100.00
41945;BME280;63122;52.424;13.458;2023-04-29T09:35:30;100618.75;;;10.90;100.00
41945;BME280;63122;52.424;13.458;2023-04-29T09:37:30;100613.63;;;10.88;100.00
41945;BME280;63122;52.424;13.458;2023-04-29T09:39:38;100616.25;;;10.88;100.00
41945;BME280;63122;52.424;13.458;2023-04-29T09:41:41;100627.56;;;10.80;100.00
41945;BME280;63122;52.424;13.458;2023-04-29T09:43:38;100634.00;;;10.78;100.00
41945;BME280;63122;52.424;13.458;2023-04-29T09:45:40;100636.16;;;10.83;100.00
41945;BME280;63122;52.424;13.458;2023-04-29T09:47:41;100640.09;;;10.78;100.00
41945;BME280;63122;52.424;13.458;2023-04-29T10:05:55;100672.28;;;10.82;100.00
41945;BME280;63122;52.424;13.458;2023-04-29T10:07:51;100675.44;;;10.86;100.00
41945;BME280;63122;52.424;13.458;2023-04-29T10:09:47;100682.31;;;10.78;100.00
41945;BME280;63122;52.424;13.458;2023-04-29T10:11:43;100673.97;;;10.65;100.00
41945;BME280;63122;52.424;13.458;2023-04-29T10:13:41;100676.81;;;10.72;100.00
41945;BME280;63122;52.424;13.458;2023-04-29T10:15:42;100686.53;;;10.71;100.00
41945;BME280;63122;52.424;13.458;2023-04-29T10:17:47;100685.78;;;10.79;100.00
41945;BME280;63122;52.424;13.458;2023-04-29T10:19:51;100688.94;;;10.83;100.00
41945;BME280;63122;52.424;13.458;2023-04-29T10:21:52;100692.56;;;10.82;100.00
41945;BME280;63122;52.424;13.458;2023-04-29T10:23:48;100697.91;;;10.72;100.00
41945;BME280;63122;52.424;13.458;2023-04-29T10:25:45;100696.50;;;10.77;100.00
41945;BME280;63122;52.424;13.458;2023-04-29T10:27:42;100695.19;;;10.82;100.00
41945;BME280;63122;52.424;13.458;2023-04-29T10:29:39;100695.88;;;10.84;100.00
41945;BME280;63122;52.424;13.458;2023-04-29T10:31:35;100692.78;;;10.88;100.00
41945;BME280;63122;52.424;13.458;2023-04-29T10:33:32;100696.63;;;10.94;100.00
41945;BME280;63122;52.424;13.458;2023-04-29T10:35:29;100697.34;;;11.04;100.00
41945;BME280;63122;52.424;13.458;2023-04-29T10:37:28;100698.03;;;11.06;100.00
41945;BME280;63122;52.424;13.458;2023-04-29T10:39:34;100704.59;;;11.02;100.00
41945;BME280;63122;52.424;13.458;2023-04-29T10:41:36;100709.56;;;11.05;100.00
41945;BME280;63122;52.424;13.458;2023-04-29T10:43:39;100707.28;;;11.11;100.00
41945;BME280;63122;52.424;13.458;2023-04-29T10:45:37;100711.97;;;11.17;100.00
41945;BME280;63122;52.424;13.458;2023-04-29T10:48:09;100710.47;;;11.14;100.00
41945;BME280;63122;52.424;13.458;2023-04-29T10:50:07;100709.56;;;11.05;100.00
41945;BME280;63122;52.424;13.458;2023-04-29T10:52:04;100720.06;;;10.97;100.00
41945;BME280;63122;52.424;13.458;2023-04-29T10:54:07;100720.06;;;10.97;100.00
41945;BME280;63122;52.424;13.458;2023-04-29T10:56:07;100722.34;;;10.92;100.00
41945;BME280;63122;52.424;13.458;2023-04-29T11:00:49;100723.59;;;10.88;100.00
41945;BME280;63122;52.424;13.458;2023-04-29T11:02:48;100728.44;;;10.92;100.00
41945;BME280;63122;52.424;13.458;2023-04-29T11:05:05;100730.31;;;11.00;100.00
41945;BME280;63122;52.424;13.458;2023-04-29T11:07:03;100724.75;;;11.03;100.00
41945;BME280;63122;52.424;13.458;2023-04-29T11:09:09;100732.72;;;11.12;100.00
41945;BME280;63122;52.424;13.458;2023-04-29T11:12:18;100728.50;;;11.19;100.00
41945;BME280;63122;52.424;13.458;2023-04-29T11:23:42;100741.06;;;11.25;100.00
41945;BME280;63122;52.424;13.458;2023-04-29T12:10:18;100769.88;;;11.98;100.00
41945;BME280;63122;52.424;13.458;2023-04-29T12:12:09;100769.66;;;12.09;100.00
41945;BME280;63122;52.424;13.458;2023-04-29T12:14:23;100772.66;;;12.22;100.00
41945;BME280;63122;52.424;13.458;2023-04-29T12:16:52;100775.19;;;12.32;100.00
41945;BME280;63122;52.424;13.458;2023-04-29T12:18:59;100774.38;;;12.32;100.00
41945;BME280;63122;52.424;13.458;2023-04-29T12:21:11;100783.75;;;12.26;100.00
41945;BME280;63122;52.424;13.458;2023-04-29T12:23:16;100775.19;;;12.32;100.00
41945;BME280;63122;52.424;13.458;2023-04-29T12:25:31;100770.41;;;12.36;100.00
41945;BME280;63122;52.424;13.458;2023-04-29T12:27:28;100779.34;;;12.35;100.00
41945;BME280;63122;52.424;13.458;2023-04-29T12:29:27;100775.19;;;12.41;100.00
41945;BME280;63122;52.424;13.458;2023-04-29T12:33:43;100789.88;;;12.27;100.00
41945;BME280;63122;52.424;13.458;2023-04-29T12:35:38;100787.91;;;12.29;100.00
41945;BME280;63122;52.424;13.458;2023-04-29T12:37:33;100797.00;;;12.26;100.00
41945;BME280;63122;52.424;13.458;2023-04-29T12:39:30;100797.31;;;12.23;100.00
41945;BME280;63122;52.424;13.458;2023-04-29T12:41:39;100795.16;;;12.27;100.00
41945;BME280;63122;52.424;13.458;2023-04-29T12:43:36;100805.88;;;12.17;100.00
41945;BME280;63122;52.424;13.458;2023-04-29T12:45:32;100793.13;;;12.12;100.00
41945;BME280;63122;52.424;13.458;2023-04-29T12:47:31;100803.25;;;12.17;100.00
41945;BME280;63122;52.424;13.458;2023-04-29T12:49:29;100807.16;;;12.13;100.00
41945;BME280;63122;52.424;13.458;2023-04-29T12:51:34;100809.97;;;12.11;100.00
41945;BME280;63122;52.424;13.458;2023-04-29T12:53:51;100801.88;;;12.13;100.00
41945;BME280;63122;52.424;13.458;2023-04-29T12:55:50;100808.81;;;12.14;100.00
41945;BME280;63122;52.424;13.458;2023-04-29T12:57:54;100809.19;;;12.19;100.00
41945;BME280;63122;52.424;13.458;2023-04-29T12:59:52;100806.25;;;12.30;100.00
41945;BME280;63122;52.424;13.458;2023-04-29T13:04:17;100805.00;;;12.43;100.00
41945;BME280;63122;52.424;13.458;2023-04-29T13:06:15;100807.97;;;12.48;100.00
41945;BME280;63122;52.424;13.458;2023-04-29T13:08:11;100806.69;;;12.60;100.00
41945;BME280;63122;52.424;13.458;2023-04-29T13:10:08;100808.34;;;12.61;100.00
41945;BME280;63122;52.424;13.458;2023-04-29T13:12:04;100809.03;;;12.72;100.00
41945;BME280;63122;52.424;13.458;2023-04-29T13:14:03;100798.28;;;12.81;100.00
41945;BME280;63122;52.424;13.458;2023-04-29T13:15:59;100804.03;;;12.68;100.00
41945;BME280;63122;52.424;13.458;2023-04-29T13:18:01;100804.22;;;12.75;100.00
41945;BME280;63122;52.424;13.458;2023-04-29T13:20:06;100811.69;;;12.72;100.00
41945;BME280;63122;52.424;13.458;2023-04-29T13:22:03;100810.03;;;12.87;100.00
41945;BME280;63122;52.424;13.458;2023-04-29T13:23:59;100814.06;;;13.00;100.00
41945;BME280;63122;52.424;13.458;2023-04-29T13:25:54;100809.09;;;13.05;100.00
41945;BME280;63122;52.424;13.458;2023-04-29T13:27:55;100817.88;;;13.14;100.00
41945;BME280;63122;52.424;13.458;2023-04-29T13:29:58;100807.94;;;13.24;100.00
41945;BME280;63122;52.424;13.458;2023-04-29T13:32:05;100807.28;;;13.22;100.00